1873 Hurricane NOT_NAMED (1873225N14335)


IBTrACS version v04r00. Visit IBTrACS website for data access.
Please direct all questions to the IBTrACS Q and A forum

Storm track - Intensity - Wind Radii - Intensity Data - Source Data - All data

Summary Information

Storm ID 1873225N14335
Start Aug 13 00Z
Landfall Aug 27 00Z, Aug 27 06Z
Max Intensity 100 kt (Aug 23 00Z), 962 mb (Aug 25 00Z)
End Aug 28 18Z
ATCF IDs AL021873
Track status Best track data.

Storm track plot

Map of storm track

Intensity plots

Map of storm track

Radial wind information

No radial wind information for this storm


Position and Intensity Table

BASIN ISO_TIME_________ NATURE LAT LON WMO WIND WMO PRES USA WIND USA PRES MLC WIND MLC PRES
degrees north degrees east kts mb kts mb kts mb
NA 1873-08-13 00:00:00 TS 13.90 -25.00 40 40
NA 03:00:00 TS 13.96 -25.50 40
NA 06:00:00 TS 14.00 -26.00 40 40
NA 09:00:00 TS 14.00 -26.49 40
NA 12:00:00 TS 14.00 -27.00 40 40
NA 15:00:00 TS 14.05 -27.53 40
NA 18:00:00 TS 14.10 -28.10 40 40
NA 21:00:00 TS 14.10 -28.69 45
NA 1873-08-14 00:00:00 TS 14.10 -29.30 50 50
NA 03:00:00 TS 14.14 -29.93 50
NA 06:00:00 TS 14.20 -30.60 50 50
NA 09:00:00 TS 14.25 -31.32 50
NA 12:00:00 TS 14.30 -32.00 50 50
NA 15:00:00 TS 14.35 -32.50 50
NA 18:00:00 TS 14.40 -33.00 50 50
NA 21:00:00 TS 14.46 -33.66 50
NA 1873-08-15 00:00:00 TS 14.50 -34.40 50 50
NA 03:00:00 TS 14.51 -35.15 50
NA 06:00:00 TS 14.50 -35.90 50 50
NA 09:00:00 TS 14.49 -36.63 50
NA 12:00:00 TS 14.50 -37.30 50 50
NA 15:00:00 TS 14.54 -37.86 50
NA 18:00:00 TS 14.60 -38.40 50 50
NA 21:00:00 TS 14.65 -39.02 55
NA 1873-08-16 00:00:00 TS 14.70 -39.70 60 60
NA 03:00:00 TS 14.74 -40.44 60
NA 06:00:00 TS 14.80 -41.20 60 60
NA 09:00:00 TS 14.88 -41.97 60
NA 12:00:00 TS 15.00 -42.70 60 60
NA 15:00:00 TS 15.14 -43.35 60
NA 18:00:00 TS 15.30 -44.00 60 60
NA 21:00:00 TS 15.44 -44.74 65
NA 1873-08-17 00:00:00 TS 15.60 -45.50 70 70
NA 03:00:00 TS 15.78 -46.21 70
NA 06:00:00 TS 16.00 -47.00 70 70
NA 09:00:00 TS 16.25 -48.00 70
NA 12:00:00 TS 16.50 -49.00 70 70
NA 15:00:00 TS 16.69 -49.79 70
NA 18:00:00 TS 16.90 -50.50 70 70
NA 21:00:00 TS 17.18 -51.24 70
NA 1873-08-18 00:00:00 TS 17.50 -52.00 70 70
NA 03:00:00 TS 17.86 -52.81 70
NA 06:00:00 TS 18.20 -53.60 70 70
NA 09:00:00 TS 18.44 -54.32 70
NA 12:00:00 TS 18.70 -55.00 70 70
NA 15:00:00 TS 19.08 -55.69 70
NA 18:00:00 TS 19.50 -56.40 70 70
NA 21:00:00 TS 19.83 -57.14 75
NA 1873-08-19 00:00:00 TS 20.20 -57.90 80 80
NA 03:00:00 TS 20.85 -58.85 80
NA 06:00:00 TS 21.42 -59.70 80 80 80
NA 09:00:00 TS 21.91 -60.46 80 80
NA 12:00:00 TS 22.40 -61.10 80 80 80
NA 15:00:00 TS 22.83 -61.59 80 80
NA 18:00:00 TS 23.27 -62.07 80 80 80
NA 21:00:00 TS 23.74 -62.67 80 80
NA 1873-08-20 00:00:00 TS 24.20 -63.27 80 80 80 985
NA 03:00:00 TS 24.60 -63.75 80 80
NA 06:00:00 TS 25.00 -64.17 80 80 80
NA 09:00:00 TS 25.44 -64.57 80 80
NA 12:00:00 TS 25.87 -64.97 80 80 80
NA 15:00:00 TS 26.25 -65.40 80 80
NA 18:00:00 TS 26.63 -65.80 80 80 80
NA 21:00:00 TS 27.05 -66.11 85 80
NA 1873-08-21 00:00:00 TS 27.50 -66.37 90 90 80
NA 03:00:00 TS 27.98 -66.60 90 80
NA 06:00:00 TS 28.50 -66.80 90 90 80
NA 09:00:00 TS 29.09 -66.99 90 80
NA 12:00:00 TS 29.63 -67.17 90 90 80
NA 15:00:00 TS 30.03 -67.32 90 80
NA 18:00:00 TS 30.37 -67.47 90 90 80 987
NA 21:00:00 TS 30.72 -67.61 90 80
NA 1873-08-22 00:00:00 TS 31.07 -67.73 90 90 80
NA 03:00:00 TS 31.42 -67.84 90 82
NA 06:00:00 TS 31.77 -67.90 90 90 85
NA 09:00:00 TS 32.11 -67.92 90 87
NA 12:00:00 TS 32.47 -67.90 90 90 90
NA 15:00:00 TS 32.88 -67.89 90 92
NA 18:00:00 TS 33.30 -67.87 90 90 95
NA 21:00:00 TS 33.69 -67.81 95 97
NA 1873-08-23 00:00:00 TS 34.27 -67.78 100 100 100
NA 03:00:00 TS 34.89 -67.72 100 100
NA 06:00:00 TS 35.60 -67.59 100 100 100
NA 09:00:00 TS 36.46 -67.31 100
NA 12:00:00 TS 37.00 -67.00 100 100
NA 15:00:00 TS 37.63 -66.70 100
NA 18:00:00 TS 38.30 -66.40 100 100
NA 21:00:00 TS 38.89 -66.14 100
NA 1873-08-24 00:00:00 TS 39.50 -65.80 100 100
NA 03:00:00 TS 40.21 -65.24 100
NA 06:00:00 TS 40.90 -64.60 100 100
NA 09:00:00 TS 41.48 -64.11 95
NA 12:00:00 TS 42.00 -63.50 90 90
NA 15:00:00 TS 42.53 -62.56 90
NA 18:00:00 TS 43.00 -61.40 90 90
NA 21:00:00 TS 43.37 -60.16 90
NA 1873-08-25 00:00:00 TS 43.70 -58.90 90 962 90 962
NA 03:00:00 TS 44.06 -57.68 90
NA 06:00:00 TS 44.40 -56.60 90 90
NA 09:00:00 TS 44.70 -55.68 85
NA 12:00:00 TS 45.00 -55.00 80 80
NA 15:00:00 TS 45.37 -54.54 80
NA 18:00:00 MX 45.53 -54.77 80 80 70
NA 21:00:00 MX 45.64 -54.87 80 70
NA 1873-08-26 00:00:00 MX 45.81 -54.89 80 80 70
NA 03:00:00 MX 46.11 -54.83 80 67
NA 06:00:00 MX 46.47 -54.60 80 80 65
NA 09:00:00 MX 46.84 -54.30 75 62
NA 12:00:00 MX 47.17 -54.07 70 70 60 989
NA 15:00:00 MX 47.38 -54.00 70 57
NA 18:00:00 MX 47.53 -54.00 70 70 55
NA 21:00:00 MX 47.70 -53.96 70 55
NA 1873-08-27 00:00:00 MX 47.87 -53.90 70 70 55
NA 03:00:00 MX 48.06 -53.81 70 52
NA 06:00:00 MX 48.23 -53.70 70 70 50
NA 09:00:00 MX 48.33 -53.65 65 50
NA 12:00:00 ET 48.50 -53.50 60 60 50
NA 15:00:00 ET 48.89 -53.13 60 47
NA 18:00:00 ET 49.40 -52.60 60 60 45
NA 21:00:00 ET 49.92 -52.00 60 45
NA 1873-08-28 00:00:00 ET 50.40 -51.30 60 60 45
NA 03:00:00 ET 50.70 -50.58 60 45
NA 06:00:00 ET 51.00 -49.80 60 60 45
NA 09:00:00 ET 51.47 -48.94 55 45
NA 12:00:00 ET 52.00 -48.00 50 50 45
NA 15:00:00 ET 52.51 -47.02 50 45
NA 18:00:00 ET 53.00 -46.00 50 50 45

Source Information

Agency Information
USA hurdat2-1851-2019-042820.txt:Line=2521:UNNAMED
TOKYO
CMA
HKO
NEWDELHI
REUNION
BOM
NADI
WELLINGTON
DS824
TD9636
TD9635
NEUMANN
MLC

All available IBTrACS Data

SEASON BASIN SUBBASIN ISO_TIME_________ NATURE LAT LON WMO WIND WMO PRES WMO AGENCY DIST2LAND LANDFALL IFLAG USA AGENCY USA ATCF_ID USA LAT USA LON USA STATUS USA WIND USA PRES USA SSHS MLC LAT MLC LON MLC CLASS MLC WIND MLC PRES STORM SPEED STORM DIR
Year degrees north degrees east kts mb km km degrees north degrees east kts mb 1 degrees north degrees east kts mb kts degrees
1873 NA NA 1873-08-13 00:00:00 TS 13.90 -25.00 40 hurdat_atl 813 813 O_____________ hurdat_atl AL021873 13.90 -25.00 TS 40 0 10 277
1873 NA NA 03:00:00 TS 13.96 -25.50 865 865 P_____________ AL021873 13.96 -25.50 TS 40 0 10 276
1873 NA NA 06:00:00 TS 14.00 -26.00 40 hurdat_atl 919 919 O_____________ hurdat_atl AL021873 14.00 -26.00 TS 40 0 10 272
1873 NA NA 09:00:00 TS 14.00 -26.49 973 973 P_____________ AL021873 14.00 -26.49 TS 40 0 10 270
1873 NA NA 12:00:00 TS 14.00 -27.00 40 hurdat_atl 1026 1026 O_____________ hurdat_atl AL021873 14.00 -27.00 TS 40 0 10 273
1873 NA NA 15:00:00 TS 14.05 -27.53 1080 1080 P_____________ AL021873 14.05 -27.53 TS 40 0 11 275
1873 NA NA 18:00:00 TS 14.10 -28.10 40 hurdat_atl 1144 1144 O_____________ hurdat_atl AL021873 14.10 -28.10 TS 40 0 11 273
1873 NA NA 21:00:00 TS 14.10 -28.69 1208 1208 P_____________ AL021873 14.10 -28.69 TS 45 0 12 270
1873 NA NA 1873-08-14 00:00:00 TS 14.10 -29.30 50 hurdat_atl 1273 1273 O_____________ hurdat_atl AL021873 14.10 -29.30 TS 50 0 12 272
1873 NA NA 03:00:00 TS 14.14 -29.93 1337 1337 P_____________ AL021873 14.14 -29.93 TS 50 0 13 275
1873 NA NA 06:00:00 TS 14.20 -30.60 50 hurdat_atl 1412 1412 O_____________ hurdat_atl AL021873 14.20 -30.60 TS 50 0 14 275
1873 NA NA 09:00:00 TS 14.25 -31.32 1486 1486 P_____________ AL021873 14.25 -31.32 TS 50 0 14 274
1873 NA NA 12:00:00 TS 14.30 -32.00 50 hurdat_atl 1562 1562 O_____________ hurdat_atl AL021873 14.30 -32.00 TS 50 0 11 275
1873 NA NA 15:00:00 TS 14.35 -32.50 1615 1615 P_____________ AL021873 14.35 -32.50 TS 50 0 10 276
1873 NA NA 18:00:00 TS 14.40 -33.00 50 hurdat_atl 1669 1669 O_____________ hurdat_atl AL021873 14.40 -33.00 TS 50 0 11 275
1873 NA NA 21:00:00 TS 14.46 -33.66 1743 1743 P_____________ AL021873 14.46 -33.66 TS 50 0 14 274
1873 NA NA 1873-08-15 00:00:00 TS 14.50 -34.40 50 hurdat_atl 1819 1819 O_____________ hurdat_atl AL021873 14.50 -34.40 TS 50 0 14 272
1873 NA NA 03:00:00 TS 14.51 -35.15 1905 1905 P_____________ AL021873 14.51 -35.15 TS 50 0 15 270
1873 NA NA 06:00:00 TS 14.50 -35.90 50 hurdat_atl 1980 1975 O_____________ hurdat_atl AL021873 14.50 -35.90 TS 50 0 14 269
1873 NA NA 09:00:00 TS 14.49 -36.63 1975 1913 P_____________ AL021873 14.49 -36.63 TS 50 0 14 270
1873 NA NA 12:00:00 TS 14.50 -37.30 50 hurdat_atl 1913 1869 O_____________ hurdat_atl AL021873 14.50 -37.30 TS 50 0 12 272
1873 NA NA 15:00:00 TS 14.54 -37.86 1861 1824 P_____________ AL021873 14.54 -37.86 TS 50 0 11 275
1873 NA NA 18:00:00 TS 14.60 -38.40 50 hurdat_atl 1824 1774 O_____________ hurdat_atl AL021873 14.60 -38.40 TS 50 0 11 275
1873 NA NA 21:00:00 TS 14.65 -39.02 1774 1724 P_____________ AL021873 14.65 -39.02 TS 55 0 13 275
1873 NA NA 1873-08-16 00:00:00 TS 14.70 -39.70 60 hurdat_atl 1724 1668 O_____________ hurdat_atl AL021873 14.70 -39.70 TS 60 0 14 274
1873 NA NA 03:00:00 TS 14.74 -40.44 1668 1614 P_____________ AL021873 14.74 -40.44 TS 60 0 15 274
1873 NA NA 06:00:00 TS 14.80 -41.20 60 hurdat_atl 1614 1571 O_____________ hurdat_atl AL021873 14.80 -41.20 TS 60 0 15 276
1873 NA NA 09:00:00 TS 14.88 -41.97 1564 1524 P_____________ AL021873 14.88 -41.97 TS 60 0 15 278
1873 NA NA 12:00:00 TS 15.00 -42.70 60 hurdat_atl 1524 1493 O_____________ hurdat_atl AL021873 15.00 -42.70 TS 60 0 14 281
1873 NA NA 15:00:00 TS 15.14 -43.35 1487 1468 P_____________ AL021873 15.14 -43.35 TS 60 0 13 283
1873 NA NA 18:00:00 TS 15.30 -44.00 60 hurdat_atl 1468 1432 O_____________ hurdat_atl AL021873 15.30 -44.00 TS 60 0 14 283
1873 NA NA 21:00:00 TS 15.44 -44.74 1432 1399 P_____________ AL021873 15.44 -44.74 TS 65 1 15 282
1873 NA NA 1873-08-17 00:00:00 TS 15.60 -45.50 70 hurdat_atl 1399 1373 O_____________ hurdat_atl AL021873 15.60 -45.50 HU 70 1 15 284
1873 NA NA 03:00:00 TS 15.78 -46.21 1377 1355 P_____________ AL021873 15.78 -46.21 HU 70 1 15 285
1873 NA NA 06:00:00 TS 16.00 -47.00 70 hurdat_atl 1355 1332 O_____________ hurdat_atl AL021873 16.00 -47.00 HU 70 1 18 285
1873 NA NA 09:00:00 TS 16.25 -48.00 1338 1315 P_____________ AL021873 16.25 -48.00 HU 70 1 20 285
1873 NA NA 12:00:00 TS 16.50 -49.00 70 hurdat_atl 1315 1298 O_____________ hurdat_atl AL021873 16.50 -49.00 HU 70 1 18 284
1873 NA NA 15:00:00 TS 16.69 -49.79 1301 1292 P_____________ AL021873 16.69 -49.79 HU 70 1 15 286
1873 NA NA 18:00:00 TS 16.90 -50.50 70 hurdat_atl 1296 1277 O_____________ hurdat_atl AL021873 16.90 -50.50 HU 70 1 15 289
1873 NA NA 21:00:00 TS 17.18 -51.24 1283 1233 P_____________ AL021873 17.18 -51.24 HU 70 1 16 293
1873 NA NA 1873-08-18 00:00:00 TS 17.50 -52.00 70 hurdat_atl 1233 1188 O_____________ hurdat_atl AL021873 17.50 -52.00 HU 70 1 16 295
1873 NA NA 03:00:00 TS 17.86 -52.81 1195 1156 P_____________ AL021873 17.86 -52.81 HU 70 1 17 295
1873 NA NA 06:00:00 TS 18.20 -53.60 70 hurdat_atl 1157 1123 O_____________ hurdat_atl AL021873 18.20 -53.60 HU 70 1 16 292
1873 NA NA 09:00:00 TS 18.44 -54.32 1123 1101 P_____________ AL021873 18.44 -54.32 HU 70 1 14 291
1873 NA NA 12:00:00 TS 18.70 -55.00 70 hurdat_atl 1103 1045 O_____________ hurdat_atl AL021873 18.70 -55.00 HU 70 1 15 296
1873 NA NA 15:00:00 TS 19.08 -55.69 1045 975 P_____________ AL021873 19.08 -55.69 HU 70 1 15 301
1873 NA NA 18:00:00 TS 19.50 -56.40 70 hurdat_atl 975 906 O_____________ hurdat_atl AL021873 19.50 -56.40 HU 70 1 16 299
1873 NA NA 21:00:00 TS 19.83 -57.14 906 832 P_____________ AL021873 19.83 -57.14 HU 75 1 16 296
1873 NA NA 1873-08-19 00:00:00 TS 20.20 -57.90 80 hurdat_atl 832 761 O_____________ hurdat_atl AL021873 20.20 -57.90 HU 80 1 19 302
1873 NA NA 03:00:00 TS 20.85 -58.85 751 702 P_____________ AL021873 20.69 -58.70 HU 80 1 21 306
1873 NA NA 06:00:00 TS 21.42 -59.70 80 hurdat_atl 702 669 O____________O hurdat_atl AL021873 21.20 -59.50 HU 80 1 22.30 -60.50 HU 80 18 305
1873 NA NA 09:00:00 TS 21.91 -60.46 660 647 P____________P AL021873 21.61 -60.29 HU 80 1 22.76 -60.91 HU 80 16 307
1873 NA NA 12:00:00 TS 22.40 -61.10 80 hurdat_atl 647 640 O____________O hurdat_atl AL021873 22.00 -61.00 HU 80 1 23.20 -61.30 HU 80 14 311
1873 NA NA 15:00:00 TS 22.83 -61.59 644 644 P____________P AL021873 22.43 -61.56 HU 80 1 23.61 -61.65 HU 80 12 314
1873 NA NA 18:00:00 TS 23.27 -62.07 80 hurdat_atl 657 651 O____________O hurdat_atl AL021873 22.90 -62.10 HU 80 1 24.00 -62.00 HU 80 14 313
1873 NA NA 21:00:00 TS 23.74 -62.67 664 664 P____________P AL021873 23.39 -62.80 HU 80 1 24.43 -62.41 HU 80 14 310
1873 NA NA 1873-08-20 00:00:00 TS 24.20 -63.27 80 hurdat_atl 690 690 O____________O hurdat_atl AL021873 23.90 -63.50 HU 80 1 24.80 -62.80 HU 80 985 13 311
1873 NA NA 03:00:00 TS 24.60 -63.75 720 717 P____________P AL021873 24.39 -64.08 HU 80 1 25.03 -63.08 HU 80 11 314
1873 NA NA 06:00:00 TS 25.00 -64.17 80 hurdat_atl 751 751 O____________O hurdat_atl AL021873 24.90 -64.60 HU 80 1 25.20 -63.30 HU 80 11 318
1873 NA NA 09:00:00 TS 25.44 -64.57 789 789 P____________P AL021873 25.46 -65.11 HU 80 1 25.38 -63.50 HU 80 11 320
1873 NA NA 12:00:00 TS 25.87 -64.97 80 hurdat_atl 840 840 O____________O hurdat_atl AL021873 26.00 -65.60 HU 80 1 25.60 -63.70 HU 80 11 317
1873 NA NA 15:00:00 TS 26.25 -65.40 878 873 P____________P AL021873 26.41 -66.12 HU 80 1 25.94 -63.96 HU 80 11 316
1873 NA NA 18:00:00 TS 26.63 -65.80 80 hurdat_atl 891 891 O____________O hurdat_atl AL021873 26.80 -66.60 HU 80 1 26.30 -64.20 HU 80 10 321
1873 NA NA 21:00:00 TS 27.05 -66.11 917 917 P____________P AL021873 27.27 -66.99 HU 85 2 26.61 -64.37 HU 80 10 330
1873 NA NA 1873-08-21 00:00:00 TS 27.50 -66.37 90 hurdat_atl 955 955 O____________O hurdat_atl AL021873 27.80 -67.30 HU 90 2 26.90 -64.50 HU 80 10 335
1873 NA NA 03:00:00 TS 27.98 -66.60 997 997 P____________P AL021873 28.38 -67.57 HU 90 2 27.18 -64.65 HU 80 11 339
1873 NA NA 06:00:00 TS 28.50 -66.80 90 hurdat_atl 1027 1027 O____________O hurdat_atl AL021873 29.00 -67.80 HU 90 2 27.50 -64.80 HU 80 12 343
1873 NA NA 09:00:00 TS 29.09 -66.99 1068 1037 P____________P AL021873 29.69 -68.02 HU 90 2 27.88 -64.94 HU 80 12 344
1873 NA NA 12:00:00 TS 29.63 -67.17 90 hurdat_atl 1037 1000 O____________O hurdat_atl AL021873 30.30 -68.20 HU 90 2 28.30 -65.10 HU 80 10 343
1873 NA NA 15:00:00 TS 30.03 -67.32 1000 963 P____________P AL021873 30.69 -68.32 HU 90 2 28.71 -65.33 HU 80 8 340
1873 NA NA 18:00:00 TS 30.37 -67.47 90 hurdat_atl 956 927 O____________O hurdat_atl AL021873 31.00 -68.40 HU 90 2 29.10 -65.60 HU 80 987 7 340
1873 NA NA 21:00:00 TS 30.72 -67.61 927 898 P____________P AL021873 31.34 -68.46 HU 90 2 29.47 -65.91 HU 80 7 342
1873 NA NA 1873-08-22 00:00:00 TS 31.07 -67.73 90 hurdat_atl 891 863 O____________O hurdat_atl AL021873 31.70 -68.50 HU 90 2 29.80 -66.20 HU 80 7 344
1873 NA NA 03:00:00 TS 31.42 -67.84 863 836 P____________P AL021873 32.09 -68.56 HU 90 2 30.06 -66.38 HU 82 7 348
1873 NA NA 06:00:00 TS 31.77 -67.90 90 hurdat_atl 830 811 O____________O hurdat_atl AL021873 32.50 -68.60 HU 90 2 30.30 -66.50 HU 85 7 354
1873 NA NA 09:00:00 TS 32.11 -67.92 811 794 P____________P AL021873 32.88 -68.57 HU 90 2 30.55 -66.60 HU 87 7 0
1873 NA NA 12:00:00 TS 32.47 -67.90 90 hurdat_atl 788 767 O____________O hurdat_atl AL021873 33.30 -68.50 HU 90 2 30.80 -66.70 HU 90 8 0
1873 NA NA 15:00:00 TS 32.88 -67.89 767 748 P____________P AL021873 33.79 -68.41 HU 90 2 31.05 -66.85 HU 92 8 3
1873 NA NA 18:00:00 TS 33.30 -67.87 90 hurdat_atl 748 739 O____________O hurdat_atl AL021873 34.30 -68.30 HU 90 2 31.30 -67.00 HU 95 8 5
1873 NA NA 21:00:00 TS 33.69 -67.81 739 721 P____________P AL021873 34.76 -68.16 HU 95 2 31.54 -67.10 HU 97 10 4
1873 NA NA 1873-08-23 00:00:00 TS 34.27 -67.78 100 hurdat_atl 718 708 O____________O hurdat_atl AL021873 35.20 -68.00 HU 100 3 31.80 -67.20 MH 100 12 3
1873 NA NA 03:00:00 TS 34.89 -67.72 712 706 P____________P AL021873 35.59 -67.82 HU 100 3 32.08 -67.35 MH 100 13 7
1873 NA NA 06:00:00 TS 35.60 -67.59 100 hurdat_atl 709 634 O____________O hurdat_atl AL021873 36.00 -67.60 HU 100 3 32.40 -67.50 MH 100 16 12
1873 NA NA 09:00:00 TS 36.46 -67.31 623 582 P_____________ AL021873 36.46 -67.31 HU 100 3 MH 15 19
1873 NA NA 12:00:00 TS 37.00 -67.00 100 hurdat_atl 582 536 O_____________ hurdat_atl AL021873 37.00 -67.00 HU 100 3 MH 13 23
1873 NA NA 15:00:00 TS 37.63 -66.70 536 486 P_____________ AL021873 37.63 -66.70 HU 100 3 MH 14 20
1873 NA NA 18:00:00 TS 38.30 -66.40 100 hurdat_atl 486 447 O_____________ hurdat_atl AL021873 38.30 -66.40 HU 100 3 MH 13 19
1873 NA NA 21:00:00 TS 38.89 -66.14 453 429 P_____________ AL021873 38.89 -66.14 HU 100 3 MH 13 21
1873 NA NA 1873-08-24 00:00:00 TS 39.50 -65.80 100 hurdat_atl 429 367 O_____________ hurdat_atl AL021873 39.50 -65.80 HU 100 3 MH 15 28
1873 NA NA 03:00:00 TS 40.21 -65.24 367 294 P_____________ AL021873 40.21 -65.24 HU 100 3 MH 17 33
1873 NA NA 06:00:00 TS 40.90 -64.60 100 hurdat_atl 294 250 O_____________ hurdat_atl AL021873 40.90 -64.60 HU 100 3 MH 15 34
1873 NA NA 09:00:00 TS 41.48 -64.11 243 220 P_____________ AL021873 41.48 -64.11 HU 95 2 MH 14 37
1873 NA NA 12:00:00 TS 42.00 -63.50 90 hurdat_atl 221 216 O_____________ hurdat_atl AL021873 42.00 -63.50 HU 90 2 MH 16 48
1873 NA NA 15:00:00 TS 42.53 -62.56 226 214 P_____________ AL021873 42.53 -62.56 HU 90 2 MH 18 57
1873 NA NA 18:00:00 TS 43.00 -61.40 90 hurdat_atl 218 212 O_____________ hurdat_atl AL021873 43.00 -61.40 HU 90 2 MH 19 64
1873 NA NA 21:00:00 TS 43.37 -60.16 212 212 P_____________ AL021873 43.37 -60.16 HU 90 2 MH 19 69
1873 NA NA 1873-08-25 00:00:00 TS 43.70 -58.90 90 962 hurdat_atl 240 240 O_____________ hurdat_atl AL021873 43.70 -58.90 HU 90 962 2 MH 19 69
1873 NA NA 03:00:00 TS 44.06 -57.68 266 266 P_____________ AL021873 44.06 -57.68 HU 90 2 MH 18 67
1873 NA NA 06:00:00 TS 44.40 -56.60 90 hurdat_atl 275 233 O_____________ hurdat_atl AL021873 44.40 -56.60 HU 90 2 MH 16 66
1873 NA NA 09:00:00 TS 44.70 -55.68 233 205 P_____________ AL021873 44.70 -55.68 HU 85 2 MH 13 62
1873 NA NA 12:00:00 TS 45.00 -55.00 80 hurdat_atl 207 153 O_____________ hurdat_atl AL021873 45.00 -55.00 HU 80 1 MH 10 50
1873 NA NA 15:00:00 TS 45.37 -54.54 150 144 P_____________ AL021873 45.37 -54.54 HU 80 1 MH 6 17
1873 NA NA 18:00:00 MX 45.53 -54.77 80 hurdat_atl 151 141 O____________O hurdat_atl AL021873 45.70 -54.30 HU 80 1 44.20 -58.50 EX 70 4 320
1873 NA NA 21:00:00 MX 45.64 -54.87 143 123 P____________P AL021873 45.86 -54.15 HU 80 1 44.75 -57.75 EX 70 3 342
1873 NA NA 1873-08-26 00:00:00 MX 45.81 -54.89 80 hurdat_atl 123 90 O____________O hurdat_atl AL021873 46.00 -54.10 HU 80 1 45.30 -57.00 EX 70 5 5
1873 NA NA 03:00:00 MX 46.11 -54.83 90 53 P____________P AL021873 46.23 -54.09 HU 80 1 45.85 -56.29 EX 67 7 17
1873 NA NA 06:00:00 MX 46.47 -54.60 80 hurdat_atl 45 7 O____________O hurdat_atl AL021873 46.50 -54.10 HU 80 1 46.40 -55.60 EX 65 8 26
1873 NA NA 09:00:00 MX 46.84 -54.30 7 7 P____________P AL021873 46.76 -54.05 HU 75 1 47.01 -54.81 EX 62 8 28
1873 NA NA 12:00:00 MX 47.17 -54.07 70 hurdat_atl 7 0 O____________O hurdat_atl AL021873 47.00 -54.00 HU 70 1 47.50 -54.20 EX 60 989 6 21
1873 NA NA 15:00:00 MX 47.38 -54.00 7 7 P____________P AL021873 47.21 -54.00 HU 70 1 47.72 -54.00 EX 57 4 6
1873 NA NA 18:00:00 MX 47.53 -54.00 70 hurdat_atl 7 7 O____________O hurdat_atl AL021873 47.40 -54.00 HU 70 1 47.80 -54.00 EX 55 3 5
1873 NA NA 21:00:00 MX 47.70 -53.96 7 0 P____________P AL021873 47.60 -53.96 HU 70 1 47.90 -53.95 EX 55 3 12
1873 NA NA 1873-08-27 00:00:00 MX 47.87 -53.90 70 hurdat_atl 0 0 O____________O hurdat_atl AL021873 47.80 -53.90 HU 70 1 48.00 -53.90 EX 55 4 17
1873 NA NA 03:00:00 MX 48.06 -53.81 7 0 P____________P AL021873 48.01 -53.81 HU 70 1 48.15 -53.81 EX 52 4 20
1873 NA NA 06:00:00 MX 48.23 -53.70 70 hurdat_atl 0 0 O____________O hurdat_atl AL021873 48.20 -53.70 HU 70 1 48.30 -53.70 EX 50 3 21
1873 NA NA 09:00:00 MX 48.33 -53.65 0 0 P____________P AL021873 48.31 -53.65 HU 65 1 48.35 -53.65 EX 50 3 26
1873 NA NA 12:00:00 ET 48.50 -53.50 60 hurdat_atl 0 0 O____________O hurdat_atl AL021873 48.50 -53.50 EX 60 -4 48.50 -53.50 EX 50 7 31
1873 NA NA 15:00:00 ET 48.89 -53.13 33 31 P____________P AL021873 48.90 -53.13 EX 60 -4 48.89 -53.13 EX 47 11 33
1873 NA NA 18:00:00 ET 49.40 -52.60 60 hurdat_atl 65 65 O____________O hurdat_atl AL021873 49.40 -52.60 EX 60 -4 49.40 -52.60 EX 45 13 36
1873 NA NA 21:00:00 ET 49.92 -52.00 126 126 P____________P AL021873 49.92 -52.00 EX 60 -4 49.92 -52.00 EX 45 13 40
1873 NA NA 1873-08-28 00:00:00 ET 50.40 -51.30 60 hurdat_atl 198 198 O____________O hurdat_atl AL021873 50.40 -51.30 EX 60 -4 50.40 -51.30 EX 45 12 49
1873 NA NA 03:00:00 ET 50.70 -50.58 258 258 P____________P AL021873 50.70 -50.58 EX 60 -4 50.70 -50.58 EX 45 11 58
1873 NA NA 06:00:00 ET 51.00 -49.80 60 hurdat_atl 323 323 O____________O hurdat_atl AL021873 51.00 -49.80 EX 60 -4 51.00 -49.80 EX 45 13 53
1873 NA NA 09:00:00 ET 51.47 -48.94 405 405 P____________P AL021873 51.47 -48.94 EX 55 -4 51.47 -48.94 EX 45 15 48
1873 NA NA 12:00:00 ET 52.00 -48.00 50 hurdat_atl 488 488 O____________O hurdat_atl AL021873 52.00 -48.00 EX 50 -4 52.00 -48.00 EX 45 16 49
1873 NA NA 15:00:00 ET 52.51 -47.02 575 575 P____________P AL021873 52.51 -47.02 EX 50 -4 52.51 -47.02 EX 45 16 51
1873 NA NA 18:00:00 ET 53.00 -46.00 50 hurdat_atl 646 O____________O hurdat_atl AL021873 53.00 -46.00 EX 50 -4 53.00 -46.00 EX 45 16 51